sensor_id;sensor_type;location;lat;lon;timestamp;P1;durP1;ratioP1;P2;durP2;ratioP2
32094;SDS011;18608;53.688;10.748;2022-08-19T00:00:15;32.70;;;20.77;;
32094;SDS011;18608;53.688;10.748;2022-08-19T00:02:42;31.00;;;21.87;;
32094;SDS011;18608;53.688;10.748;2022-08-19T00:05:09;31.87;;;21.77;;
32094;SDS011;18608;53.688;10.748;2022-08-19T00:07:35;33.47;;;21.33;;
32094;SDS011;18608;53.688;10.748;2022-08-19T00:10:02;34.90;;;22.40;;
32094;SDS011;18608;53.688;10.748;2022-08-19T00:12:28;39.77;;;24.17;;
32094;SDS011;18608;53.688;10.748;2022-08-19T00:14:54;37.93;;;22.63;;
32094;SDS011;18608;53.688;10.748;2022-08-19T00:17:20;41.83;;;24.10;;
32094;SDS011;18608;53.688;10.748;2022-08-19T00:19:47;40.40;;;26.50;;
32094;SDS011;18608;53.688;10.748;2022-08-19T00:22:13;50.77;;;27.43;;
32094;SDS011;18608;53.688;10.748;2022-08-19T00:24:39;48.83;;;26.37;;
32094;SDS011;18608;53.688;10.748;2022-08-19T00:27:06;47.43;;;27.03;;
32094;SDS011;18608;53.688;10.748;2022-08-19T00:29:32;50.53;;;27.70;;
32094;SDS011;18608;53.688;10.748;2022-08-19T00:31:58;45.40;;;27.57;;
32094;SDS011;18608;53.688;10.748;2022-08-19T00:34:25;53.23;;;29.17;;
32094;SDS011;18608;53.688;10.748;2022-08-19T00:36:53;50.13;;;28.77;;
32094;SDS011;18608;53.688;10.748;2022-08-19T00:39:20;57.10;;;32.63;;
32094;SDS011;18608;53.688;10.748;2022-08-19T00:41:46;56.20;;;30.97;;
32094;SDS011;18608;53.688;10.748;2022-08-19T00:44:16;60.20;;;31.93;;
32094;SDS011;18608;53.688;10.748;2022-08-19T00:46:45;66.73;;;33.80;;
32094;SDS011;18608;53.688;10.748;2022-08-19T00:52:14;59.40;;;34.20;;
32094;SDS011;18608;53.688;10.748;2022-08-19T00:54:42;69.33;;;33.30;;
32094;SDS011;18608;53.688;10.748;2022-08-19T00:57:10;71.03;;;34.63;;
32094;SDS011;18608;53.688;10.748;2022-08-19T00:59:39;68.30;;;33.87;;
32094;SDS011;18608;53.688;10.748;2022-08-19T01:02:07;62.03;;;33.23;;
32094;SDS011;18608;53.688;10.748;2022-08-19T01:04:33;63.50;;;35.00;;
32094;SDS011;18608;53.688;10.748;2022-08-19T01:06:59;66.03;;;33.50;;
32094;SDS011;18608;53.688;10.748;2022-08-19T01:09:26;50.17;;;31.43;;
32094;SDS011;18608;53.688;10.748;2022-08-19T01:11:52;57.00;;;31.70;;
32094;SDS011;18608;53.688;10.748;2022-08-19T01:14:18;60.57;;;33.10;;
32094;SDS011;18608;53.688;10.748;2022-08-19T01:16:44;65.10;;;32.37;;
32094;SDS011;18608;53.688;10.748;2022-08-19T01:22:03;64.43;;;32.23;;
32094;SDS011;18608;53.688;10.748;2022-08-19T01:24:34;56.50;;;33.00;;
32094;SDS011;18608;53.688;10.748;2022-08-19T01:27:03;54.83;;;30.47;;
32094;SDS011;18608;53.688;10.748;2022-08-19T01:29:29;70.80;;;32.13;;
32094;SDS011;18608;53.688;10.748;2022-08-19T01:31:55;51.37;;;28.70;;
32094;SDS011;18608;53.688;10.748;2022-08-19T01:34:21;70.00;;;31.90;;
32094;SDS011;18608;53.688;10.748;2022-08-19T01:36:48;57.07;;;32.00;;
32094;SDS011;18608;53.688;10.748;2022-08-19T01:39:16;67.17;;;35.30;;
32094;SDS011;18608;53.688;10.748;2022-08-19T01:41:44;66.10;;;33.57;;
32094;SDS011;18608;53.688;10.748;2022-08-19T01:44:10;61.97;;;32.03;;
32094;SDS011;18608;53.688;10.748;2022-08-19T01:46:36;61.97;;;31.70;;
32094;SDS011;18608;53.688;10.748;2022-08-19T01:49:03;56.87;;;32.07;;
32094;SDS011;18608;53.688;10.748;2022-08-19T01:51:30;61.33;;;34.20;;
32094;SDS011;18608;53.688;10.748;2022-08-19T01:53:56;68.50;;;33.90;;
32094;SDS011;18608;53.688;10.748;2022-08-19T01:56:22;65.67;;;32.90;;
32094;SDS011;18608;53.688;10.748;2022-08-19T01:58:59;64.40;;;32.03;;
32094;SDS011;18608;53.688;10.748;2022-08-19T02:01:27;54.77;;;33.13;;
32094;SDS011;18608;53.688;10.748;2022-08-19T02:03:56;61.93;;;33.70;;
32094;SDS011;18608;53.688;10.748;2022-08-19T02:06:23;60.20;;;32.90;;
32094;SDS011;18608;53.688;10.748;2022-08-19T02:08:49;68.40;;;34.00;;
32094;SDS011;18608;53.688;10.748;2022-08-19T02:11:22;68.23;;;34.10;;
32094;SDS011;18608;53.688;10.748;2022-08-19T02:13:51;61.80;;;33.70;;
32094;SDS011;18608;53.688;10.748;2022-08-19T02:16:18;71.67;;;35.00;;
32094;SDS011;18608;53.688;10.748;2022-08-19T02:18:44;71.43;;;33.00;;
32094;SDS011;18608;53.688;10.748;2022-08-19T02:21:09;63.80;;;33.63;;
32094;SDS011;18608;53.688;10.748;2022-08-19T02:23:35;81.30;;;34.23;;
32094;SDS011;18608;53.688;10.748;2022-08-19T02:26:01;66.27;;;32.87;;
32094;SDS011;18608;53.688;10.748;2022-08-19T02:28:27;73.37;;;33.10;;
32094;SDS011;18608;53.688;10.748;2022-08-19T02:30:53;70.70;;;33.90;;
32094;SDS011;18608;53.688;10.748;2022-08-19T02:33:19;65.23;;;34.60;;
32094;SDS011;18608;53.688;10.748;2022-08-19T02:35:45;78.17;;;34.83;;
32094;SDS011;18608;53.688;10.748;2022-08-19T02:38:11;67.40;;;33.90;;
32094;SDS011;18608;53.688;10.748;2022-08-19T02:40:51;71.90;;;35.03;;
32094;SDS011;18608;53.688;10.748;2022-08-19T02:43:29;67.63;;;34.83;;
32094;SDS011;18608;53.688;10.748;2022-08-19T02:45:55;76.97;;;36.40;;
32094;SDS011;18608;53.688;10.748;2022-08-19T02:48:22;70.73;;;36.20;;
32094;SDS011;18608;53.688;10.748;2022-08-19T02:50:50;61.30;;;32.97;;
32094;SDS011;18608;53.688;10.748;2022-08-19T02:53:20;77.10;;;35.00;;
32094;SDS011;18608;53.688;10.748;2022-08-19T02:55:47;62.33;;;33.30;;
32094;SDS011;18608;53.688;10.748;2022-08-19T02:58:14;73.60;;;33.17;;
32094;SDS011;18608;53.688;10.748;2022-08-19T03:00:44;63.50;;;33.40;;
32094;SDS011;18608;53.688;10.748;2022-08-19T03:03:11;66.73;;;30.83;;
32094;SDS011;18608;53.688;10.748;2022-08-19T03:05:37;60.00;;;31.83;;
32094;SDS011;18608;53.688;10.748;2022-08-19T03:08:03;62.00;;;32.50;;
32094;SDS011;18608;53.688;10.748;2022-08-19T03:10:30;64.70;;;32.10;;
32094;SDS011;18608;53.688;10.748;2022-08-19T03:12:56;69.43;;;33.07;;
32094;SDS011;18608;53.688;10.748;2022-08-19T03:15:22;73.23;;;31.80;;
32094;SDS011;18608;53.688;10.748;2022-08-19T03:17:48;61.97;;;29.30;;
32094;SDS011;18608;53.688;10.748;2022-08-19T03:20:14;66.20;;;31.53;;
32094;SDS011;18608;53.688;10.748;2022-08-19T03:22:39;59.37;;;32.33;;
32094;SDS011;18608;53.688;10.748;2022-08-19T03:25:05;57.77;;;31.50;;
32094;SDS011;18608;53.688;10.748;2022-08-19T03:27:31;51.73;;;31.90;;
32094;SDS011;18608;53.688;10.748;2022-08-19T03:29:57;59.10;;;29.70;;
32094;SDS011;18608;53.688;10.748;2022-08-19T03:32:24;56.63;;;28.17;;
32094;SDS011;18608;53.688;10.748;2022-08-19T03:34:50;51.43;;;28.90;;
32094;SDS011;18608;53.688;10.748;2022-08-19T03:37:17;56.93;;;28.87;;
32094;SDS011;18608;53.688;10.748;2022-08-19T03:39:43;47.43;;;27.97;;
32094;SDS011;18608;53.688;10.748;2022-08-19T03:42:08;53.80;;;29.27;;
32094;SDS011;18608;53.688;10.748;2022-08-19T03:44:35;43.63;;;25.63;;
32094;SDS011;18608;53.688;10.748;2022-08-19T03:47:03;57.30;;;27.20;;
32094;SDS011;18608;53.688;10.748;2022-08-19T03:49:30;51.90;;;29.40;;
32094;SDS011;18608;53.688;10.748;2022-08-19T03:51:58;60.80;;;29.43;;
32094;SDS011;18608;53.688;10.748;2022-08-19T03:54:25;47.07;;;27.80;;
32094;SDS011;18608;53.688;10.748;2022-08-19T03:56:53;49.97;;;29.20;;
32094;SDS011;18608;53.688;10.748;2022-08-19T03:59:28;63.67;;;29.43;;
32094;SDS011;18608;53.688;10.748;2022-08-19T04:01:57;58.33;;;28.53;;
32094;SDS011;18608;53.688;10.748;2022-08-19T04:04:23;64.00;;;33.00;;
32094;SDS011;18608;53.688;10.748;2022-08-19T04:06:49;61.60;;;30.20;;
32094;SDS011;18608;53.688;10.748;2022-08-19T04:09:16;53.53;;;30.23;;
32094;SDS011;18608;53.688;10.748;2022-08-19T04:11:44;62.43;;;30.37;;
32094;SDS011;18608;53.688;10.748;2022-08-19T04:14:12;64.47;;;30.67;;
32094;SDS011;18608;53.688;10.748;2022-08-19T04:16:41;67.20;;;29.20;;
32094;SDS011;18608;53.688;10.748;2022-08-19T04:19:08;56.03;;;30.10;;
32094;SDS011;18608;53.688;10.748;2022-08-19T04:21:34;51.57;;;29.27;;
32094;SDS011;18608;53.688;10.748;2022-08-19T04:24:00;55.57;;;29.20;;
32094;SDS011;18608;53.688;10.748;2022-08-19T04:26:28;68.03;;;30.27;;
32094;SDS011;18608;53.688;10.748;2022-08-19T04:29:00;55.87;;;30.80;;
32094;SDS011;18608;53.688;10.748;2022-08-19T04:31:30;65.50;;;31.07;;
32094;SDS011;18608;53.688;10.748;2022-08-19T04:34:00;58.00;;;29.83;;
32094;SDS011;18608;53.688;10.748;2022-08-19T04:36:30;53.33;;;28.17;;
32094;SDS011;18608;53.688;10.748;2022-08-19T04:38:59;68.00;;;30.13;;
32094;SDS011;18608;53.688;10.748;2022-08-19T04:41:28;63.77;;;29.93;;
32094;SDS011;18608;53.688;10.748;2022-08-19T04:44:12;69.40;;;30.90;;
32094;SDS011;18608;53.688;10.748;2022-08-19T04:46:39;58.00;;;30.20;;
32094;SDS011;18608;53.688;10.748;2022-08-19T04:49:05;70.67;;;30.43;;
32094;SDS011;18608;53.688;10.748;2022-08-19T04:51:33;58.33;;;31.03;;
32094;SDS011;18608;53.688;10.748;2022-08-19T04:54:00;62.77;;;31.47;;
32094;SDS011;18608;53.688;10.748;2022-08-19T04:56:27;65.70;;;28.60;;
32094;SDS011;18608;53.688;10.748;2022-08-19T04:58:53;75.53;;;31.73;;
32094;SDS011;18608;53.688;10.748;2022-08-19T05:01:23;64.73;;;30.50;;
32094;SDS011;18608;53.688;10.748;2022-08-19T05:03:50;72.30;;;32.77;;
32094;SDS011;18608;53.688;10.748;2022-08-19T05:06:18;70.77;;;31.50;;
32094;SDS011;18608;53.688;10.748;2022-08-19T05:08:45;64.03;;;30.60;;
32094;SDS011;18608;53.688;10.748;2022-08-19T05:11:14;65.40;;;31.53;;
32094;SDS011;18608;53.688;10.748;2022-08-19T05:13:44;66.67;;;31.70;;
32094;SDS011;18608;53.688;10.748;2022-08-19T05:16:11;67.93;;;32.00;;
32094;SDS011;18608;53.688;10.748;2022-08-19T05:18:38;62.07;;;30.83;;
32094;SDS011;18608;53.688;10.748;2022-08-19T05:21:23;66.67;;;34.00;;
32094;SDS011;18608;53.688;10.748;2022-08-19T05:24:07;90.70;;;32.00;;
32094;SDS011;18608;53.688;10.748;2022-08-19T05:26:37;89.83;;;34.30;;
32094;SDS011;18608;53.688;10.748;2022-08-19T05:29:04;76.07;;;33.50;;
32094;SDS011;18608;53.688;10.748;2022-08-19T05:31:30;81.77;;;35.70;;
32094;SDS011;18608;53.688;10.748;2022-08-19T05:33:56;70.90;;;34.13;;
32094;SDS011;18608;53.688;10.748;2022-08-19T05:36:24;68.80;;;32.47;;
32094;SDS011;18608;53.688;10.748;2022-08-19T05:38:50;77.47;;;34.17;;
32094;SDS011;18608;53.688;10.748;2022-08-19T05:41:18;74.77;;;34.27;;
32094;SDS011;18608;53.688;10.748;2022-08-19T05:43:44;82.90;;;33.67;;
32094;SDS011;18608;53.688;10.748;2022-08-19T05:46:13;73.97;;;32.67;;
32094;SDS011;18608;53.688;10.748;2022-08-19T05:48:44;76.17;;;31.60;;
32094;SDS011;18608;53.688;10.748;2022-08-19T05:51:11;74.30;;;31.37;;
32094;SDS011;18608;53.688;10.748;2022-08-19T05:53:37;78.00;;;32.53;;
32094;SDS011;18608;53.688;10.748;2022-08-19T05:56:04;70.10;;;30.30;;
32094;SDS011;18608;53.688;10.748;2022-08-19T05:58:35;75.33;;;31.90;;
32094;SDS011;18608;53.688;10.748;2022-08-19T06:01:03;73.13;;;30.87;;
32094;SDS011;18608;53.688;10.748;2022-08-19T06:03:34;70.73;;;29.93;;
32094;SDS011;18608;53.688;10.748;2022-08-19T06:06:02;59.20;;;28.50;;
32094;SDS011;18608;53.688;10.748;2022-08-19T06:08:28;68.70;;;32.30;;
32094;SDS011;18608;53.688;10.748;2022-08-19T06:10:54;68.53;;;31.87;;
32094;SDS011;18608;53.688;10.748;2022-08-19T06:13:21;61.87;;;30.00;;
32094;SDS011;18608;53.688;10.748;2022-08-19T06:15:48;60.83;;;28.80;;
32094;SDS011;18608;53.688;10.748;2022-08-19T06:18:13;57.70;;;28.90;;
32094;SDS011;18608;53.688;10.748;2022-08-19T06:20:40;76.23;;;32.90;;
32094;SDS011;18608;53.688;10.748;2022-08-19T06:23:07;59.90;;;29.13;;
32094;SDS011;18608;53.688;10.748;2022-08-19T06:25:33;66.40;;;28.80;;
32094;SDS011;18608;53.688;10.748;2022-08-19T06:27:59;67.20;;;31.13;;
32094;SDS011;18608;53.688;10.748;2022-08-19T06:30:25;68.30;;;30.40;;
32094;SDS011;18608;53.688;10.748;2022-08-19T06:32:51;74.07;;;28.60;;
32094;SDS011;18608;53.688;10.748;2022-08-19T06:35:17;62.37;;;30.80;;
32094;SDS011;18608;53.688;10.748;2022-08-19T06:37:43;58.57;;;30.83;;
32094;SDS011;18608;53.688;10.748;2022-08-19T06:40:09;65.90;;;30.77;;
32094;SDS011;18608;53.688;10.748;2022-08-19T06:42:36;63.83;;;31.13;;
32094;SDS011;18608;53.688;10.748;2022-08-19T06:45:03;65.40;;;32.17;;
32094;SDS011;18608;53.688;10.748;2022-08-19T06:47:31;58.37;;;29.90;;
32094;SDS011;18608;53.688;10.748;2022-08-19T06:49:59;70.03;;;31.77;;
32094;SDS011;18608;53.688;10.748;2022-08-19T06:52:28;61.07;;;30.07;;
32094;SDS011;18608;53.688;10.748;2022-08-19T06:54:54;57.50;;;32.73;;
32094;SDS011;18608;53.688;10.748;2022-08-19T06:57:21;67.60;;;31.43;;
32094;SDS011;18608;53.688;10.748;2022-08-19T06:59:48;61.00;;;31.60;;
32094;SDS011;18608;53.688;10.748;2022-08-19T07:02:13;57.37;;;29.93;;
32094;SDS011;18608;53.688;10.748;2022-08-19T07:04:39;63.20;;;31.73;;
32094;SDS011;18608;53.688;10.748;2022-08-19T07:07:07;68.77;;;33.63;;
32094;SDS011;18608;53.688;10.748;2022-08-19T07:09:39;62.93;;;31.37;;
32094;SDS011;18608;53.688;10.748;2022-08-19T07:12:08;64.40;;;33.40;;
32094;SDS011;18608;53.688;10.748;2022-08-19T07:14:36;70.87;;;32.17;;
32094;SDS011;18608;53.688;10.748;2022-08-19T07:17:03;67.40;;;33.70;;
32094;SDS011;18608;53.688;10.748;2022-08-19T07:19:31;67.47;;;34.17;;
32094;SDS011;18608;53.688;10.748;2022-08-19T07:21:57;71.10;;;32.97;;
32094;SDS011;18608;53.688;10.748;2022-08-19T07:24:25;71.80;;;33.23;;
32094;SDS011;18608;53.688;10.748;2022-08-19T07:26:52;69.70;;;33.30;;
32094;SDS011;18608;53.688;10.748;2022-08-19T07:29:19;69.30;;;33.63;;
32094;SDS011;18608;53.688;10.748;2022-08-19T07:31:47;68.30;;;34.13;;
32094;SDS011;18608;53.688;10.748;2022-08-19T07:34:13;66.33;;;32.10;;
32094;SDS011;18608;53.688;10.748;2022-08-19T07:36:40;76.83;;;34.20;;
32094;SDS011;18608;53.688;10.748;2022-08-19T07:39:08;74.57;;;32.10;;
32094;SDS011;18608;53.688;10.748;2022-08-19T07:41:36;75.83;;;31.00;;
32094;SDS011;18608;53.688;10.748;2022-08-19T07:44:03;71.30;;;33.03;;
32094;SDS011;18608;53.688;10.748;2022-08-19T07:46:30;69.00;;;30.77;;
32094;SDS011;18608;53.688;10.748;2022-08-19T07:48:57;65.80;;;30.30;;
32094;SDS011;18608;53.688;10.748;2022-08-19T07:51:23;67.97;;;30.43;;
32094;SDS011;18608;53.688;10.748;2022-08-19T07:53:49;67.30;;;32.30;;
32094;SDS011;18608;53.688;10.748;2022-08-19T07:56:15;71.80;;;32.30;;
32094;SDS011;18608;53.688;10.748;2022-08-19T07:58:44;71.63;;;31.73;;
32094;SDS011;18608;53.688;10.748;2022-08-19T08:01:12;74.77;;;30.60;;
32094;SDS011;18608;53.688;10.748;2022-08-19T08:03:46;67.33;;;30.00;;
32094;SDS011;18608;53.688;10.748;2022-08-19T08:06:31;61.20;;;30.17;;
32094;SDS011;18608;53.688;10.748;2022-08-19T08:09:17;64.13;;;29.67;;
32094;SDS011;18608;53.688;10.748;2022-08-19T08:11:48;65.47;;;33.10;;
32094;SDS011;18608;53.688;10.748;2022-08-19T08:14:17;71.23;;;30.03;;
32094;SDS011;18608;53.688;10.748;2022-08-19T08:16:46;65.30;;;29.40;;
32094;SDS011;18608;53.688;10.748;2022-08-19T08:19:12;90.03;;;31.47;;
32094;SDS011;18608;53.688;10.748;2022-08-19T08:21:42;63.20;;;29.57;;
32094;SDS011;18608;53.688;10.748;2022-08-19T08:24:08;65.10;;;30.50;;
32094;SDS011;18608;53.688;10.748;2022-08-19T08:26:34;63.00;;;29.23;;
32094;SDS011;18608;53.688;10.748;2022-08-19T08:29:00;61.77;;;31.03;;
32094;SDS011;18608;53.688;10.748;2022-08-19T08:31:26;56.90;;;28.13;;
32094;SDS011;18608;53.688;10.748;2022-08-19T08:33:53;69.93;;;29.47;;
32094;SDS011;18608;53.688;10.748;2022-08-19T08:36:19;67.20;;;29.37;;
32094;SDS011;18608;53.688;10.748;2022-08-19T08:38:45;66.87;;;30.43;;
32094;SDS011;18608;53.688;10.748;2022-08-19T08:43:48;77.93;;;33.13;;
32094;SDS011;18608;53.688;10.748;2022-08-19T08:46:21;73.40;;;34.40;;
32094;SDS011;18608;53.688;10.748;2022-08-19T08:51:44;73.33;;;33.57;;
32094;SDS011;18608;53.688;10.748;2022-08-19T08:54:18;73.73;;;32.40;;
32094;SDS011;18608;53.688;10.748;2022-08-19T08:56:45;86.47;;;33.23;;
32094;SDS011;18608;53.688;10.748;2022-08-19T08:59:21;77.27;;;33.40;;
32094;SDS011;18608;53.688;10.748;2022-08-19T09:01:51;68.87;;;31.90;;
32094;SDS011;18608;53.688;10.748;2022-08-19T09:04:16;84.20;;;33.70;;
32094;SDS011;18608;53.688;10.748;2022-08-19T09:09:19;82.93;;;36.90;;
32094;SDS011;18608;53.688;10.748;2022-08-19T09:15:09;76.63;;;36.00;;
32094;SDS011;18608;53.688;10.748;2022-08-19T09:17:37;91.37;;;36.03;;
32094;SDS011;18608;53.688;10.748;2022-08-19T09:22:33;106.97;;;39.60;;
32094;SDS011;18608;53.688;10.748;2022-08-19T09:25:00;109.07;;;37.80;;
32094;SDS011;18608;53.688;10.748;2022-08-19T09:27:26;111.47;;;39.83;;
32094;SDS011;18608;53.688;10.748;2022-08-19T09:29:53;93.90;;;40.27;;
32094;SDS011;18608;53.688;10.748;2022-08-19T09:32:20;110.77;;;41.13;;
32094;SDS011;18608;53.688;10.748;2022-08-19T09:34:47;103.90;;;38.50;;
32094;SDS011;18608;53.688;10.748;2022-08-19T09:37:13;111.57;;;39.53;;
32094;SDS011;18608;53.688;10.748;2022-08-19T09:39:39;122.60;;;44.77;;
32094;SDS011;18608;53.688;10.748;2022-08-19T09:42:09;112.50;;;40.73;;
32094;SDS011;18608;53.688;10.748;2022-08-19T09:44:38;116.63;;;40.37;;
32094;SDS011;18608;53.688;10.748;2022-08-19T09:47:05;109.77;;;38.23;;
32094;SDS011;18608;53.688;10.748;2022-08-19T09:49:31;113.37;;;40.67;;
32094;SDS011;18608;53.688;10.748;2022-08-19T09:51:58;108.17;;;40.23;;
32094;SDS011;18608;53.688;10.748;2022-08-19T09:54:24;123.67;;;41.20;;
32094;SDS011;18608;53.688;10.748;2022-08-19T09:56:51;138.43;;;44.37;;
32094;SDS011;18608;53.688;10.748;2022-08-19T09:59:17;123.87;;;43.77;;
32094;SDS011;18608;53.688;10.748;2022-08-19T10:01:43;118.80;;;43.80;;
32094;SDS011;18608;53.688;10.748;2022-08-19T10:04:09;100.10;;;39.20;;
32094;SDS011;18608;53.688;10.748;2022-08-19T10:06:36;128.30;;;44.43;;
32094;SDS011;18608;53.688;10.748;2022-08-19T10:09:04;128.47;;;45.03;;
32094;SDS011;18608;53.688;10.748;2022-08-19T10:11:33;118.13;;;41.33;;
32094;SDS011;18608;53.688;10.748;2022-08-19T10:14:00;128.63;;;46.30;;
32094;SDS011;18608;53.688;10.748;2022-08-19T10:16:27;126.60;;;45.30;;
32094;SDS011;18608;53.688;10.748;2022-08-19T10:18:53;125.10;;;47.10;;
32094;SDS011;18608;53.688;10.748;2022-08-19T10:23:49;122.80;;;45.10;;
32094;SDS011;18608;53.688;10.748;2022-08-19T10:26:21;120.67;;;45.40;;
32094;SDS011;18608;53.688;10.748;2022-08-19T10:28:49;103.90;;;44.10;;
32094;SDS011;18608;53.688;10.748;2022-08-19T10:31:16;128.60;;;44.63;;
32094;SDS011;18608;53.688;10.748;2022-08-19T10:33:45;144.63;;;47.53;;
32094;SDS011;18608;53.688;10.748;2022-08-19T10:36:13;123.37;;;46.43;;
32094;SDS011;18608;53.688;10.748;2022-08-19T10:38:46;114.07;;;40.40;;
32094;SDS011;18608;53.688;10.748;2022-08-19T10:41:16;117.23;;;43.30;;
32094;SDS011;18608;53.688;10.748;2022-08-19T10:43:45;111.50;;;43.53;;
32094;SDS011;18608;53.688;10.748;2022-08-19T10:46:12;97.87;;;40.10;;
32094;SDS011;18608;53.688;10.748;2022-08-19T10:48:39;97.13;;;39.50;;
32094;SDS011;18608;53.688;10.748;2022-08-19T10:51:05;107.70;;;42.83;;
32094;SDS011;18608;53.688;10.748;2022-08-19T10:53:50;116.13;;;43.83;;
32094;SDS011;18608;53.688;10.748;2022-08-19T10:56:16;100.20;;;41.00;;
32094;SDS011;18608;53.688;10.748;2022-08-19T10:59:00;100.00;;;40.80;;
32094;SDS011;18608;53.688;10.748;2022-08-19T11:01:28;92.67;;;39.17;;
32094;SDS011;18608;53.688;10.748;2022-08-19T11:03:55;109.77;;;39.67;;
32094;SDS011;18608;53.688;10.748;2022-08-19T11:06:25;102.03;;;37.27;;
32094;SDS011;18608;53.688;10.748;2022-08-19T11:08:51;83.03;;;36.03;;
32094;SDS011;18608;53.688;10.748;2022-08-19T11:11:19;93.47;;;37.33;;
32094;SDS011;18608;53.688;10.748;2022-08-19T11:13:46;84.67;;;34.70;;
32094;SDS011;18608;53.688;10.748;2022-08-19T11:16:13;103.23;;;41.77;;
32094;SDS011;18608;53.688;10.748;2022-08-19T11:18:43;94.67;;;34.87;;
32094;SDS011;18608;53.688;10.748;2022-08-19T11:21:15;94.67;;;38.47;;
32094;SDS011;18608;53.688;10.748;2022-08-19T11:23:44;115.17;;;39.80;;
32094;SDS011;18608;53.688;10.748;2022-08-19T11:26:11;90.43;;;39.53;;
32094;SDS011;18608;53.688;10.748;2022-08-19T11:28:38;107.80;;;40.60;;
32094;SDS011;18608;53.688;10.748;2022-08-19T11:31:04;102.53;;;38.83;;
32094;SDS011;18608;53.688;10.748;2022-08-19T11:33:35;101.60;;;40.07;;
32094;SDS011;18608;53.688;10.748;2022-08-19T11:36:01;101.93;;;38.47;;
32094;SDS011;18608;53.688;10.748;2022-08-19T11:38:27;101.77;;;36.83;;
32094;SDS011;18608;53.688;10.748;2022-08-19T11:40:57;87.30;;;34.67;;
32094;SDS011;18608;53.688;10.748;2022-08-19T11:43:24;90.83;;;37.33;;
32094;SDS011;18608;53.688;10.748;2022-08-19T11:45:51;91.80;;;35.80;;
32094;SDS011;18608;53.688;10.748;2022-08-19T11:48:18;80.30;;;34.53;;
32094;SDS011;18608;53.688;10.748;2022-08-19T11:50:47;76.43;;;33.80;;
32094;SDS011;18608;53.688;10.748;2022-08-19T11:53:13;75.23;;;33.87;;
32094;SDS011;18608;53.688;10.748;2022-08-19T11:55:39;77.40;;;34.73;;
32094;SDS011;18608;53.688;10.748;2022-08-19T11:58:05;71.37;;;36.17;;
32094;SDS011;18608;53.688;10.748;2022-08-19T12:00:33;67.67;;;33.10;;
32094;SDS011;18608;53.688;10.748;2022-08-19T12:03:01;56.67;;;33.30;;
32094;SDS011;18608;53.688;10.748;2022-08-19T12:05:27;71.53;;;33.40;;
32094;SDS011;18608;53.688;10.748;2022-08-19T12:07:53;72.37;;;31.40;;
32094;SDS011;18608;53.688;10.748;2022-08-19T12:10:19;77.33;;;33.97;;
32094;SDS011;18608;53.688;10.748;2022-08-19T12:12:45;59.73;;;31.60;;
32094;SDS011;18608;53.688;10.748;2022-08-19T12:15:11;54.77;;;30.10;;
32094;SDS011;18608;53.688;10.748;2022-08-19T12:17:39;50.27;;;27.30;;
32094;SDS011;18608;53.688;10.748;2022-08-19T12:20:05;54.93;;;27.87;;
32094;SDS011;18608;53.688;10.748;2022-08-19T12:22:33;66.03;;;27.53;;
32094;SDS011;18608;53.688;10.748;2022-08-19T12:24:59;52.50;;;28.30;;
32094;SDS011;18608;53.688;10.748;2022-08-19T12:27:26;50.87;;;27.13;;
32094;SDS011;18608;53.688;10.748;2022-08-19T12:29:52;56.90;;;26.67;;
32094;SDS011;18608;53.688;10.748;2022-08-19T12:32:18;46.83;;;25.03;;
32094;SDS011;18608;53.688;10.748;2022-08-19T12:34:44;43.27;;;25.00;;
32094;SDS011;18608;53.688;10.748;2022-08-19T12:37:12;45.27;;;25.17;;
32094;SDS011;18608;53.688;10.748;2022-08-19T12:39:41;41.60;;;23.87;;
32094;SDS011;18608;53.688;10.748;2022-08-19T12:42:08;46.73;;;23.67;;
32094;SDS011;18608;53.688;10.748;2022-08-19T12:44:35;44.03;;;26.20;;
32094;SDS011;18608;53.688;10.748;2022-08-19T12:47:02;45.00;;;24.47;;
32094;SDS011;18608;53.688;10.748;2022-08-19T12:49:29;48.80;;;24.97;;
32094;SDS011;18608;53.688;10.748;2022-08-19T12:51:56;51.50;;;26.33;;
32094;SDS011;18608;53.688;10.748;2022-08-19T12:54:23;56.47;;;26.43;;
32094;SDS011;18608;53.688;10.748;2022-08-19T12:56:48;44.93;;;26.50;;
32094;SDS011;18608;53.688;10.748;2022-08-19T12:59:14;53.90;;;29.30;;
32094;SDS011;18608;53.688;10.748;2022-08-19T13:01:43;55.03;;;27.93;;
32094;SDS011;18608;53.688;10.748;2022-08-19T13:04:09;57.83;;;29.20;;
32094;SDS011;18608;53.688;10.748;2022-08-19T13:06:35;55.77;;;31.23;;
32094;SDS011;18608;53.688;10.748;2022-08-19T13:09:02;55.00;;;31.10;;
32094;SDS011;18608;53.688;10.748;2022-08-19T13:11:28;64.60;;;32.07;;
32094;SDS011;18608;53.688;10.748;2022-08-19T13:13:57;60.33;;;31.40;;
32094;SDS011;18608;53.688;10.748;2022-08-19T13:16:23;70.07;;;34.13;;
32094;SDS011;18608;53.688;10.748;2022-08-19T13:18:50;61.70;;;33.53;;
32094;SDS011;18608;53.688;10.748;2022-08-19T13:21:17;61.37;;;32.60;;
32094;SDS011;18608;53.688;10.748;2022-08-19T13:23:45;57.60;;;31.27;;
32094;SDS011;18608;53.688;10.748;2022-08-19T13:26:11;70.87;;;31.30;;
32094;SDS011;18608;53.688;10.748;2022-08-19T13:28:37;55.97;;;30.77;;
32094;SDS011;18608;53.688;10.748;2022-08-19T13:31:23;53.87;;;27.13;;
32094;SDS011;18608;53.688;10.748;2022-08-19T13:34:09;50.53;;;28.47;;
32094;SDS011;18608;53.688;10.748;2022-08-19T13:36:35;53.90;;;27.73;;
32094;SDS011;18608;53.688;10.748;2022-08-19T13:39:02;48.23;;;28.23;;
32094;SDS011;18608;53.688;10.748;2022-08-19T13:41:29;46.30;;;26.63;;
32094;SDS011;18608;53.688;10.748;2022-08-19T13:43:55;46.20;;;26.03;;
32094;SDS011;18608;53.688;10.748;2022-08-19T13:46:21;48.27;;;26.20;;
32094;SDS011;18608;53.688;10.748;2022-08-19T13:48:47;48.30;;;27.70;;
32094;SDS011;18608;53.688;10.748;2022-08-19T13:51:14;47.70;;;26.47;;
32094;SDS011;18608;53.688;10.748;2022-08-19T13:53:41;47.13;;;24.87;;
32094;SDS011;18608;53.688;10.748;2022-08-19T13:56:08;48.60;;;27.03;;
32094;SDS011;18608;53.688;10.748;2022-08-19T13:58:36;41.13;;;24.90;;
32094;SDS011;18608;53.688;10.748;2022-08-19T14:01:03;38.40;;;24.63;;
32094;SDS011;18608;53.688;10.748;2022-08-19T14:03:29;48.77;;;26.03;;
32094;SDS011;18608;53.688;10.748;2022-08-19T14:05:56;43.10;;;26.70;;
32094;SDS011;18608;53.688;10.748;2022-08-19T14:08:22;44.23;;;25.07;;
32094;SDS011;18608;53.688;10.748;2022-08-19T14:10:48;40.43;;;26.00;;
32094;SDS011;18608;53.688;10.748;2022-08-19T14:13:15;41.27;;;23.50;;
32094;SDS011;18608;53.688;10.748;2022-08-19T14:15:43;35.93;;;22.70;;
32094;SDS011;18608;53.688;10.748;2022-08-19T14:18:09;34.37;;;21.10;;
32094;SDS011;18608;53.688;10.748;2022-08-19T14:20:35;41.23;;;22.00;;
32094;SDS011;18608;53.688;10.748;2022-08-19T14:23:01;30.33;;;21.10;;
32094;SDS011;18608;53.688;10.748;2022-08-19T14:25:28;43.47;;;22.53;;
32094;SDS011;18608;53.688;10.748;2022-08-19T14:27:55;37.10;;;21.47;;
32094;SDS011;18608;53.688;10.748;2022-08-19T14:30:26;30.63;;;20.20;;